createdAt,value
2023-04-26T00:00:09.509Z,51.36
2023-04-26T00:01:09.272Z,50.27
2023-04-26T00:02:09.271Z,41.56
2023-04-26T00:03:09.367Z,50.55
2023-04-26T00:04:09.546Z,57.45
2023-04-26T00:05:09.653Z,34.74
2023-04-26T00:06:09.305Z,28.99
2023-04-26T00:07:09.316Z,30.98
2023-04-26T00:08:09.319Z,33.09
2023-04-26T00:09:09.349Z,44.35
2023-04-26T00:10:09.339Z,51.19
2023-04-26T00:11:09.353Z,46.34
2023-04-26T00:12:09.354Z,45.10
2023-04-26T00:13:09.390Z,29.71
2023-04-26T00:14:09.461Z,41.38
2023-04-26T00:15:09.450Z,36.41
2023-04-26T00:16:09.515Z,38.07
2023-04-26T00:17:09.508Z,44.42
2023-04-26T00:18:09.597Z,41.01
2023-04-26T00:19:09.594Z,38.85
2023-04-26T00:20:09.620Z,45.01
2023-04-26T00:21:09.694Z,46.62
2023-04-26T00:22:09.707Z,57.70
2023-04-26T00:23:09.732Z,67.39
2023-04-26T00:24:09.758Z,68.79
2023-04-26T00:25:09.826Z,69.79
2023-04-26T00:26:09.831Z,58.02
2023-04-26T00:27:09.861Z,52.58
2023-04-26T00:29:28.708Z,25.00
2023-04-26T00:30:28.677Z,25.00
2023-04-26T00:31:28.563Z,25.00
2023-04-26T00:32:28.567Z,25.00
2023-04-26T00:33:28.796Z,25.00
2023-04-26T00:34:28.530Z,30.78
2023-04-26T00:35:28.506Z,36.13
2023-04-26T00:36:28.477Z,33.18
2023-04-26T00:37:29.264Z,25.11
2023-04-26T00:38:28.777Z,24.34
2023-04-26T00:39:28.516Z,35.47
2023-04-26T00:40:29.268Z,40.28
2023-04-26T00:41:28.578Z,26.78
2023-04-26T00:42:28.410Z,40.19
2023-04-26T00:43:28.360Z,27.14
2023-04-26T00:44:28.434Z,27.49
2023-04-26T00:45:28.439Z,28.63
2023-04-26T00:46:28.313Z,42.94
2023-04-26T00:47:28.284Z,45.74
2023-04-26T00:48:28.259Z,55.00
2023-04-26T00:49:28.252Z,61.16
2023-04-26T00:50:28.225Z,63.30
2023-04-26T00:51:28.225Z,65.61
2023-04-26T00:52:28.185Z,63.90
2023-04-26T00:53:28.191Z,68.40
2023-04-26T00:54:28.157Z,66.48
2023-04-26T00:55:28.157Z,73.68
2023-04-26T00:56:28.129Z,74.73
2023-04-26T00:57:28.094Z,72.84
2023-04-26T00:58:28.085Z,74.54
2023-04-26T00:59:28.183Z,50.63
2023-04-26T01:00:28.092Z,73.19
2023-04-26T01:01:28.096Z,78.29
2023-04-26T01:02:28.127Z,80.82
2023-04-26T01:03:28.116Z,69.22
2023-04-26T01:04:28.058Z,81.29
2023-04-26T01:05:27.984Z,82.03
2023-04-26T01:06:27.971Z,85.00
2023-04-26T01:07:27.973Z,94.53
2023-04-26T01:08:27.937Z,99.70
2023-04-26T01:09:27.913Z,91.32
2023-04-26T01:10:27.885Z,102.39
2023-04-26T01:11:27.879Z,109.15
2023-04-26T01:12:27.845Z,109.66
2023-04-26T01:13:27.825Z,103.79
2023-04-26T01:14:27.825Z,100.89
2023-04-26T01:15:27.796Z,102.91
2023-04-26T01:16:27.778Z,100.17
2023-04-26T01:17:27.828Z,104.72
2023-04-26T01:18:27.728Z,109.07
2023-04-26T01:19:27.711Z,97.03
2023-04-26T01:20:27.679Z,81.45
2023-04-26T01:21:27.655Z,95.63
2023-04-26T01:22:27.626Z,98.44
2023-04-26T01:23:27.625Z,86.52
2023-04-26T01:24:27.638Z,85.47
2023-04-26T01:25:27.657Z,75.54
2023-04-26T01:26:27.675Z,82.82
2023-04-26T01:27:27.707Z,96.66
2023-04-26T01:28:27.747Z,105.51
2023-04-26T01:29:27.745Z,93.02
2023-04-26T01:30:27.740Z,101.67
2023-04-26T01:31:27.792Z,80.89
2023-04-26T01:32:27.839Z,88.84
2023-04-26T01:33:27.753Z,89.49
2023-04-26T01:34:27.754Z,89.78
2023-04-26T01:35:27.730Z,90.90
2023-04-26T01:36:27.708Z,100.04
2023-04-26T01:37:27.656Z,101.62
2023-04-26T01:38:27.654Z,101.98
2023-04-26T01:39:27.622Z,112.03
2023-04-26T01:40:27.582Z,115.55
2023-04-26T01:41:27.594Z,111.59
2023-04-26T01:42:27.556Z,102.89
2023-04-26T01:43:27.516Z,99.37
2023-04-26T01:44:27.492Z,98.07
2023-04-26T01:45:27.475Z,102.44
2023-04-26T01:46:27.521Z,99.00
2023-04-26T01:47:27.484Z,91.72
2023-04-26T01:48:27.500Z,101.55
2023-04-26T01:49:27.543Z,108.49
2023-04-26T01:50:27.527Z,115.43
2023-04-26T01:51:27.529Z,123.78
2023-04-26T01:52:27.564Z,132.94
2023-04-26T01:53:27.573Z,137.25
2023-04-26T01:54:27.590Z,136.58
2023-04-26T01:55:27.603Z,137.66
2023-04-26T01:56:27.611Z,139.05
2023-04-26T01:57:27.645Z,140.66
2023-04-26T01:58:27.644Z,142.93
2023-04-26T01:59:27.680Z,148.49
2023-04-26T02:00:27.680Z,145.56
2023-04-26T02:01:27.715Z,151.79
2023-04-26T02:02:27.741Z,145.09
2023-04-26T02:03:27.728Z,145.73
2023-04-26T02:04:27.800Z,152.18
2023-04-26T02:05:27.861Z,143.99
2023-04-26T02:06:27.766Z,131.35
2023-04-26T02:07:27.805Z,144.44
2023-04-26T02:08:27.800Z,141.47
2023-04-26T02:09:27.831Z,151.97
2023-04-26T02:10:27.835Z,152.26
2023-04-26T02:11:27.878Z,150.56
2023-04-26T02:12:27.888Z,146.37
2023-04-26T02:13:27.904Z,142.91
2023-04-26T02:14:27.930Z,125.88
2023-04-26T02:15:27.940Z,143.69
2023-04-26T02:16:27.999Z,122.31
2023-04-26T02:17:27.957Z,122.90
2023-04-26T02:18:27.924Z,126.38
2023-04-26T02:19:27.887Z,132.10
2023-04-26T02:20:27.873Z,135.40
2023-04-26T02:21:27.853Z,145.41
2023-04-26T02:22:27.875Z,154.03
2023-04-26T02:23:27.825Z,158.79
2023-04-26T02:24:27.829Z,157.06
2023-04-26T02:25:27.793Z,163.41
2023-04-26T02:26:27.766Z,161.97
2023-04-26T02:27:27.776Z,163.07
2023-04-26T02:28:27.728Z,167.86
2023-04-26T02:29:43.171Z,166.31
2023-04-26T02:30:28.722Z,166.44
2023-04-26T02:31:27.744Z,160.75
2023-04-26T02:32:27.744Z,153.91
2023-04-26T02:33:27.706Z,160.24
2023-04-26T02:34:27.637Z,162.96
2023-04-26T02:35:28.297Z,163.10
2023-04-26T02:36:27.656Z,167.23
2023-04-26T02:37:27.666Z,172.08
2023-04-26T02:38:27.551Z,174.69
2023-04-26T02:39:27.535Z,174.89
2023-04-26T02:40:27.518Z,171.83
2023-04-26T02:41:27.505Z,171.16
2023-04-26T02:42:27.477Z,157.95
2023-04-26T02:43:27.453Z,151.95
2023-04-26T02:44:27.450Z,152.79
2023-04-26T02:45:27.459Z,154.73
2023-04-26T02:46:27.498Z,151.68
2023-04-26T02:47:27.521Z,156.85
2023-04-26T02:48:27.530Z,159.90
2023-04-26T02:49:27.531Z,156.84
2023-04-26T02:50:27.546Z,165.40
2023-04-26T02:51:27.564Z,165.91
2023-04-26T02:52:27.587Z,163.13
2023-04-26T02:53:27.598Z,166.23
2023-04-26T02:54:27.618Z,161.60
2023-04-26T02:55:27.645Z,168.03
2023-04-26T02:56:27.653Z,165.67
2023-04-26T02:57:27.671Z,166.72
2023-04-26T02:58:27.693Z,170.40
2023-04-26T02:59:27.726Z,172.24
2023-04-26T03:00:27.743Z,177.27
2023-04-26T03:01:27.774Z,170.84
2023-04-26T03:02:27.894Z,156.53
2023-04-26T03:03:28.017Z,163.63
2023-04-26T03:04:27.804Z,167.58
2023-04-26T03:05:27.830Z,169.21
2023-04-26T03:06:27.867Z,176.77
2023-04-26T03:07:27.860Z,175.02
2023-04-26T03:08:27.899Z,176.10
2023-04-26T03:09:27.973Z,172.56
2023-04-26T03:10:27.975Z,175.06
2023-04-26T03:11:27.957Z,168.94
2023-04-26T03:12:28.037Z,173.37
2023-04-26T03:13:28.044Z,176.79
2023-04-26T03:14:28.039Z,179.04
2023-04-26T03:15:28.065Z,184.36
2023-04-26T03:16:28.124Z,189.19
2023-04-26T03:17:28.140Z,184.68
2023-04-26T03:18:28.127Z,178.57
2023-04-26T03:19:28.152Z,184.25
2023-04-26T03:20:28.167Z,181.02
2023-04-26T03:21:28.188Z,185.64
2023-04-26T03:22:28.200Z,193.39
2023-04-26T03:23:28.232Z,192.78
2023-04-26T03:24:28.235Z,195.75
2023-04-26T03:25:28.410Z,192.85
2023-04-26T03:26:28.283Z,194.78
2023-04-26T03:27:28.313Z,193.81
2023-04-26T03:28:28.326Z,197.74
2023-04-26T03:29:28.358Z,194.45
2023-04-26T03:30:28.389Z,193.87
2023-04-26T03:31:28.453Z,200.26
2023-04-26T03:32:28.411Z,203.16
2023-04-26T03:33:28.448Z,203.92
2023-04-26T03:34:28.467Z,202.55
2023-04-26T03:35:28.496Z,202.66
2023-04-26T03:36:28.521Z,204.66
2023-04-26T03:37:28.599Z,197.88
2023-04-26T03:38:28.619Z,202.78
2023-04-26T03:39:28.694Z,197.55
2023-04-26T03:40:28.707Z,201.10
2023-04-26T03:41:28.609Z,199.50
2023-04-26T03:42:28.654Z,203.26
2023-04-26T03:43:29.324Z,199.42
2023-04-26T03:44:30.995Z,190.19
2023-04-26T03:45:28.868Z,192.88
2023-04-26T03:46:28.906Z,194.21
2023-04-26T03:47:28.904Z,196.17
2023-04-26T03:48:28.865Z,192.91
2023-04-26T03:49:28.888Z,190.82
2023-04-26T03:50:28.988Z,198.17
2023-04-26T03:51:28.964Z,195.90
2023-04-26T03:52:28.993Z,202.25
2023-04-26T03:53:29.002Z,200.63
2023-04-26T03:54:28.966Z,199.37
2023-04-26T03:55:29.009Z,198.67
2023-04-26T03:56:29.108Z,182.20
2023-04-26T03:57:29.078Z,177.93
2023-04-26T03:58:29.042Z,190.23
2023-04-26T03:59:29.070Z,195.45
2023-04-26T04:00:29.085Z,197.43
2023-04-26T04:01:29.118Z,197.83
2023-04-26T04:02:29.281Z,202.17
2023-04-26T04:03:29.348Z,197.74
2023-04-26T04:04:29.356Z,200.20
2023-04-26T04:05:29.249Z,198.39
2023-04-26T04:06:29.230Z,193.49
2023-04-26T04:07:29.389Z,193.71
2023-04-26T04:08:29.260Z,197.21
2023-04-26T04:09:29.298Z,200.56
2023-04-26T04:10:29.333Z,205.34
2023-04-26T04:11:29.345Z,204.15
2023-04-26T04:12:29.390Z,207.63
2023-04-26T04:13:29.438Z,207.90
2023-04-26T04:14:29.435Z,209.77
2023-04-26T04:15:29.488Z,209.71
2023-04-26T04:16:29.613Z,210.03
2023-04-26T04:17:29.536Z,200.68
2023-04-26T04:18:29.535Z,195.99
2023-04-26T04:19:29.577Z,200.16
2023-04-26T04:20:29.564Z,200.21
2023-04-26T04:21:29.569Z,200.57
2023-04-26T04:22:29.593Z,200.50
2023-04-26T04:23:29.562Z,206.01
2023-04-26T04:24:29.569Z,204.59
2023-04-26T04:25:29.582Z,208.81
2023-04-26T04:26:29.553Z,210.10
2023-04-26T04:27:29.549Z,217.58
2023-04-26T04:28:29.548Z,218.77
2023-04-26T04:29:29.556Z,215.05
2023-04-26T04:30:29.554Z,215.25
2023-04-26T04:31:29.593Z,218.43
2023-04-26T04:32:29.562Z,219.52
2023-04-26T04:33:29.597Z,213.36
2023-04-26T04:34:29.547Z,216.95
2023-04-26T04:35:29.541Z,217.95
2023-04-26T04:36:29.526Z,223.91
2023-04-26T04:37:29.571Z,224.73
2023-04-26T04:38:29.605Z,227.67
2023-04-26T04:39:29.636Z,223.25
2023-04-26T04:40:29.684Z,221.93
2023-04-26T04:41:29.709Z,223.35
2023-04-26T04:42:29.725Z,230.14
2023-04-26T04:43:29.782Z,225.57
2023-04-26T04:44:29.817Z,225.57
2023-04-26T04:45:29.833Z,226.28
2023-04-26T04:46:29.891Z,229.90
2023-04-26T04:47:29.907Z,227.32
2023-04-26T04:48:29.938Z,229.41
2023-04-26T04:49:29.992Z,222.95
2023-04-26T04:50:30.043Z,230.46
2023-04-26T04:51:30.092Z,228.61
2023-04-26T04:52:30.138Z,228.34
2023-04-26T04:53:30.178Z,229.84
2023-04-26T04:54:30.209Z,231.14
2023-04-26T04:55:30.256Z,232.93
2023-04-26T04:56:30.277Z,230.42
2023-04-26T04:57:30.330Z,231.09
2023-04-26T04:58:30.372Z,231.83
2023-04-26T04:59:30.442Z,235.29
2023-04-26T05:00:30.463Z,237.71
2023-04-26T05:01:30.516Z,238.23
2023-04-26T05:02:30.567Z,240.46
2023-04-26T05:03:30.660Z,238.32
2023-04-26T05:04:30.736Z,234.69
2023-04-26T05:05:30.660Z,225.47
2023-04-26T05:06:30.687Z,232.36
2023-04-26T05:07:30.739Z,238.36
2023-04-26T05:08:30.787Z,232.27
2023-04-26T05:09:30.818Z,234.49
2023-04-26T05:10:30.853Z,235.08
2023-04-26T05:11:30.885Z,235.46
2023-04-26T05:12:30.947Z,235.58
2023-04-26T05:13:31.011Z,237.20
2023-04-26T05:14:31.059Z,231.65
2023-04-26T05:15:31.164Z,231.23
2023-04-26T05:16:31.085Z,231.42
2023-04-26T05:17:31.121Z,234.10
2023-04-26T05:18:31.239Z,233.66
2023-04-26T05:19:31.180Z,235.28
2023-04-26T05:20:31.214Z,235.50
2023-04-26T05:21:31.178Z,235.80
2023-04-26T05:22:31.140Z,237.40
2023-04-26T05:23:31.142Z,237.70
2023-04-26T05:24:31.114Z,236.16
2023-04-26T05:25:31.145Z,237.50
2023-04-26T05:26:31.082Z,242.62
2023-04-26T05:27:31.082Z,239.26
2023-04-26T05:28:31.049Z,241.10
2023-04-26T05:29:31.136Z,244.64
2023-04-26T05:30:31.054Z,241.40
2023-04-26T05:31:31.090Z,234.11
2023-04-26T05:32:31.136Z,240.33
2023-04-26T05:33:31.163Z,245.72
2023-04-26T05:34:31.201Z,249.43
2023-04-26T05:35:31.238Z,246.93
2023-04-26T05:36:31.303Z,247.69
2023-04-26T05:37:31.307Z,249.66
2023-04-26T05:38:31.336Z,250.00
2023-04-26T05:39:31.384Z,245.05
2023-04-26T05:40:31.408Z,248.67
2023-04-26T05:41:31.440Z,249.68
2023-04-26T05:42:31.484Z,249.72
2023-04-26T05:43:31.483Z,250.00
2023-04-26T05:44:31.516Z,250.00
2023-04-26T05:45:31.606Z,249.10
2023-04-26T05:46:31.661Z,249.78
2023-04-26T05:47:31.587Z,249.80
2023-04-26T05:48:31.612Z,249.58
2023-04-26T05:49:31.635Z,248.09
2023-04-26T05:50:31.653Z,250.00
2023-04-26T05:51:31.735Z,247.68
2023-04-26T05:52:31.637Z,250.00
2023-04-26T05:53:31.636Z,250.00
2023-04-26T05:54:31.645Z,250.38
2023-04-26T05:55:31.607Z,252.97
2023-04-26T05:56:31.645Z,259.23
2023-04-26T05:57:31.624Z,267.70
2023-04-26T05:58:31.545Z,276.82
2023-04-26T05:59:31.543Z,262.65
2023-04-26T06:00:31.762Z,254.33
2023-04-26T06:01:31.522Z,254.62
2023-04-26T06:02:31.515Z,255.09
2023-04-26T06:03:31.540Z,254.82
2023-04-26T06:04:31.666Z,257.08
2023-04-26T06:05:31.550Z,263.83
2023-04-26T06:06:31.385Z,274.20
2023-04-26T06:07:31.388Z,288.28
2023-04-26T06:08:31.368Z,279.72
2023-04-26T06:09:31.285Z,268.14
2023-04-26T06:10:31.287Z,257.40
2023-04-26T06:11:31.259Z,249.57
2023-04-26T06:12:31.225Z,249.49
2023-04-26T06:13:31.230Z,250.00
2023-04-26T06:14:31.256Z,250.00
2023-04-26T06:15:31.123Z,250.00
2023-04-26T06:16:31.136Z,249.57
2023-04-26T06:17:31.106Z,249.34
2023-04-26T06:18:31.026Z,249.71
2023-04-26T06:19:31.044Z,250.00
2023-04-26T06:20:31.001Z,249.64
2023-04-26T06:21:31.034Z,248.40
2023-04-26T06:22:31.049Z,248.21
2023-04-26T06:23:31.113Z,245.91
2023-04-26T06:24:31.129Z,245.57
2023-04-26T06:25:31.150Z,250.00
2023-04-26T06:26:31.184Z,250.03
2023-04-26T06:27:31.145Z,250.07
2023-04-26T06:28:31.109Z,248.96
2023-04-26T06:29:31.077Z,249.75
2023-04-26T06:30:31.068Z,245.79
2023-04-26T06:31:31.176Z,246.41
2023-04-26T06:32:31.013Z,245.38
2023-04-26T06:33:31.085Z,245.94
2023-04-26T06:34:30.917Z,243.88
2023-04-26T06:35:30.929Z,242.86
2023-04-26T06:36:31.023Z,242.78
2023-04-26T06:37:31.032Z,243.86
2023-04-26T06:38:31.063Z,243.90
2023-04-26T06:39:31.068Z,247.01
2023-04-26T06:40:31.107Z,250.00
2023-04-26T06:41:31.134Z,249.33
2023-04-26T06:42:31.484Z,249.73
2023-04-26T06:43:31.193Z,249.25
2023-04-26T06:44:31.271Z,249.38
2023-04-26T06:45:31.209Z,250.05
2023-04-26T06:46:31.113Z,251.53
2023-04-26T06:47:31.111Z,251.24
2023-04-26T06:48:30.989Z,250.52
2023-04-26T06:49:31.069Z,247.32
2023-04-26T06:50:30.966Z,245.31
2023-04-26T06:51:30.914Z,241.58
2023-04-26T06:52:30.953Z,237.76
2023-04-26T06:53:30.991Z,236.19
2023-04-26T06:54:30.981Z,231.75
2023-04-26T06:55:31.006Z,229.48
2023-04-26T06:56:31.060Z,224.69
2023-04-26T06:57:31.088Z,222.44
2023-04-26T06:58:31.117Z,219.99
2023-04-26T06:59:31.170Z,212.99
2023-04-26T07:00:31.568Z,210.48
2023-04-26T07:01:31.206Z,207.81
2023-04-26T07:02:31.349Z,205.77
2023-04-26T07:03:31.339Z,205.29
2023-04-26T07:04:31.504Z,201.32
2023-04-26T07:05:31.508Z,199.19
2023-04-26T07:06:31.323Z,193.98
2023-04-26T07:07:31.315Z,191.72
2023-04-26T07:08:31.300Z,190.00
2023-04-26T07:09:31.519Z,185.16
2023-04-26T07:10:31.339Z,180.53
2023-04-26T07:11:31.321Z,178.29
2023-04-26T07:12:31.360Z,175.73
2023-04-26T07:13:31.479Z,175.39
2023-04-26T07:14:31.360Z,172.39
2023-04-26T07:15:31.365Z,174.99
2023-04-26T07:16:31.427Z,173.44
2023-04-26T07:17:31.433Z,174.37
2023-04-26T07:18:31.450Z,172.86
2023-04-26T07:19:31.528Z,172.57
2023-04-26T07:20:31.530Z,172.55
2023-04-26T07:21:31.528Z,170.16
2023-04-26T07:22:31.420Z,167.92
2023-04-26T07:23:31.412Z,172.61
2023-04-26T07:24:31.483Z,177.20
2023-04-26T07:25:31.467Z,179.84
2023-04-26T07:26:31.501Z,183.71
2023-04-26T07:27:31.536Z,183.75
2023-04-26T07:28:31.558Z,187.27
2023-04-26T07:29:31.592Z,189.13
2023-04-26T07:30:31.645Z,191.56
2023-04-26T07:31:31.649Z,193.82
2023-04-26T07:32:31.738Z,193.90
2023-04-26T07:33:31.914Z,192.57
2023-04-26T07:34:31.829Z,189.94
2023-04-26T07:35:31.823Z,191.19
2023-04-26T07:36:31.750Z,190.04
2023-04-26T07:37:31.747Z,182.44
2023-04-26T07:38:31.871Z,178.36
2023-04-26T07:39:31.634Z,185.20
2023-04-26T07:40:31.885Z,195.81
2023-04-26T07:41:32.518Z,200.76
2023-04-26T07:42:31.492Z,205.47
2023-04-26T07:43:31.487Z,208.39
2023-04-26T07:44:31.520Z,209.80
2023-04-26T07:45:31.796Z,209.01
2023-04-26T07:46:31.599Z,207.33
2023-04-26T07:47:31.640Z,204.52
2023-04-26T07:48:32.498Z,199.71
2023-04-26T07:49:31.718Z,195.68
2023-04-26T07:50:31.761Z,192.35
2023-04-26T07:51:31.734Z,187.14
2023-04-26T07:52:31.765Z,181.79
2023-04-26T07:53:31.770Z,178.86
2023-04-26T07:54:31.822Z,178.45
2023-04-26T07:55:32.449Z,176.42
2023-04-26T07:56:31.967Z,176.04
2023-04-26T07:57:31.926Z,176.28
2023-04-26T07:58:31.945Z,173.51
2023-04-26T07:59:31.996Z,170.11
2023-04-26T08:00:31.997Z,166.58
2023-04-26T08:01:32.085Z,167.23
2023-04-26T08:02:44.098Z,167.45
2023-04-26T08:03:33.259Z,167.56
2023-04-26T08:04:32.078Z,167.83
2023-04-26T08:05:32.235Z,168.59
2023-04-26T08:06:32.755Z,167.96
2023-04-26T08:07:31.900Z,166.26
2023-04-26T08:08:31.858Z,164.55
2023-04-26T08:09:31.808Z,164.21
2023-04-26T08:10:31.932Z,163.97
2023-04-26T08:11:31.752Z,162.90
2023-04-26T08:12:31.872Z,160.58
2023-04-26T08:13:31.781Z,158.88
2023-04-26T08:14:31.801Z,156.90
2023-04-26T08:15:32.466Z,153.78
2023-04-26T08:16:31.940Z,152.80
2023-04-26T08:17:31.928Z,151.13
2023-04-26T08:18:31.955Z,154.52
2023-04-26T08:19:32.020Z,153.62
2023-04-26T08:20:32.007Z,151.50
2023-04-26T08:21:32.021Z,152.08
2023-04-26T08:22:32.054Z,145.45
2023-04-26T08:23:32.092Z,80.27
2023-04-26T08:24:32.084Z,9.57
2023-04-26T08:25:32.085Z,0.00
2023-04-26T08:26:32.051Z,0.00
2023-04-26T08:27:32.037Z,0.00
2023-04-26T08:28:32.021Z,0.00
2023-04-26T08:29:32.046Z,0.00
2023-04-26T08:30:32.114Z,9.98
2023-04-26T08:31:32.050Z,31.05
2023-04-26T08:32:31.935Z,48.45
2023-04-26T08:33:31.896Z,60.42
2023-04-26T08:34:31.906Z,63.96
2023-04-26T08:35:31.876Z,63.66
2023-04-26T08:36:31.847Z,62.42
2023-04-26T08:37:31.870Z,58.93
2023-04-26T08:38:31.820Z,52.21
2023-04-26T08:39:31.788Z,44.28
2023-04-26T08:40:31.753Z,35.35
2023-04-26T08:41:31.723Z,24.18
2023-04-26T08:42:31.686Z,11.25
2023-04-26T08:43:31.691Z,1.46
2023-04-26T08:44:31.643Z,0.00
2023-04-26T08:45:31.950Z,0.34
2023-04-26T08:46:31.636Z,6.50
2023-04-26T08:47:31.602Z,13.96
2023-04-26T08:48:31.525Z,20.40
2023-04-26T08:49:31.491Z,25.01
2023-04-26T08:50:31.455Z,23.09
2023-04-26T08:51:31.418Z,22.50
2023-04-26T08:52:31.394Z,23.88
2023-04-26T08:53:31.354Z,22.36
2023-04-26T08:54:31.325Z,30.73
2023-04-26T08:55:31.292Z,36.73
2023-04-26T08:56:31.256Z,40.32
2023-04-26T08:57:31.228Z,36.90
2023-04-26T08:58:31.201Z,30.79
2023-04-26T08:59:31.193Z,24.76
2023-04-26T09:00:31.158Z,25.19
2023-04-26T09:01:31.429Z,28.18
2023-04-26T09:02:31.306Z,34.16
2023-04-26T09:03:31.513Z,37.75
2023-04-26T09:04:31.451Z,43.56
2023-04-26T09:05:31.603Z,48.47
2023-04-26T09:06:31.352Z,52.83
2023-04-26T09:07:31.423Z,59.23
2023-04-26T09:08:31.456Z,63.81
2023-04-26T09:09:31.497Z,68.64
2023-04-26T09:10:31.559Z,71.99
2023-04-26T09:11:31.554Z,76.87
2023-04-26T09:12:31.623Z,83.57
2023-04-26T09:13:31.703Z,88.36
2023-04-26T09:14:31.674Z,93.56
2023-04-26T09:15:31.712Z,97.05
2023-04-26T09:16:31.820Z,101.24
2023-04-26T09:17:31.911Z,105.43
2023-04-26T09:18:31.814Z,108.98
2023-04-26T09:19:31.845Z,112.63
2023-04-26T09:20:31.893Z,117.71
2023-04-26T09:21:31.931Z,118.20
2023-04-26T09:22:31.963Z,123.72
2023-04-26T09:23:32.025Z,126.65
2023-04-26T09:24:32.032Z,130.59
2023-04-26T09:25:32.994Z,133.69
2023-04-26T09:26:32.068Z,134.52
2023-04-26T09:27:32.125Z,138.07
2023-04-26T09:28:32.160Z,139.17
2023-04-26T09:29:32.212Z,141.03
2023-04-26T09:30:32.184Z,144.47
2023-04-26T09:31:32.278Z,147.44
2023-04-26T09:32:32.232Z,148.61
2023-04-26T09:33:32.255Z,151.53
2023-04-26T09:34:32.304Z,152.88
2023-04-26T09:35:32.313Z,155.28
2023-04-26T09:36:32.589Z,157.66
2023-04-26T09:37:33.379Z,158.40
2023-04-26T09:38:32.408Z,161.06
2023-04-26T09:39:32.417Z,162.56
2023-04-26T09:40:32.477Z,164.03
2023-04-26T09:41:32.578Z,164.09
2023-04-26T09:42:32.651Z,164.02
2023-04-26T09:43:33.748Z,115.53
2023-04-26T09:44:32.468Z,129.17
2023-04-26T09:45:32.446Z,129.36
2023-04-26T09:46:32.521Z,130.47
2023-04-26T09:47:32.488Z,132.68
2023-04-26T09:48:32.373Z,137.86
2023-04-26T09:49:32.348Z,147.14
2023-04-26T09:50:32.315Z,151.10
2023-04-26T09:51:32.315Z,153.99
2023-04-26T09:52:32.317Z,157.78
2023-04-26T09:53:32.356Z,154.04
2023-04-26T09:54:32.217Z,156.79
2023-04-26T09:55:35.505Z,161.48
2023-04-26T09:56:32.332Z,162.03
2023-04-26T09:57:32.184Z,161.58
2023-04-26T09:58:32.187Z,165.41
2023-04-26T09:59:32.155Z,161.53
2023-04-26T10:00:32.227Z,161.33
2023-04-26T10:01:32.454Z,164.41
2023-04-26T10:02:32.209Z,164.44
2023-04-26T10:03:32.191Z,159.86
2023-04-26T10:04:32.013Z,162.66
2023-04-26T10:05:33.831Z,163.95
2023-04-26T10:06:31.896Z,166.41
2023-04-26T10:07:31.869Z,166.49
2023-04-26T10:08:31.807Z,166.62
2023-04-26T10:09:31.844Z,167.00
2023-04-26T10:10:31.722Z,167.73
2023-04-26T10:11:32.562Z,175.56
2023-04-26T10:12:31.651Z,180.33
2023-04-26T10:13:31.594Z,178.71
2023-04-26T10:14:31.568Z,214.19
2023-04-26T10:15:31.620Z,230.51
2023-04-26T10:16:31.527Z,237.56
2023-04-26T10:17:31.594Z,231.03
2023-04-26T10:18:31.508Z,243.64
2023-04-26T10:19:31.522Z,249.92
2023-04-26T10:20:31.708Z,242.60
2023-04-26T10:21:31.586Z,233.01
2023-04-26T10:22:31.541Z,228.18
2023-04-26T10:23:31.616Z,219.16
2023-04-26T10:24:31.568Z,214.47
2023-04-26T10:25:31.610Z,211.52
2023-04-26T10:26:31.624Z,204.93
2023-04-26T10:27:31.597Z,205.14
2023-04-26T10:28:31.750Z,205.31
2023-04-26T10:29:31.530Z,205.76
2023-04-26T10:30:31.575Z,206.65
2023-04-26T10:31:31.525Z,209.72
2023-04-26T10:32:31.468Z,213.45
2023-04-26T10:33:31.611Z,206.77
2023-04-26T10:34:31.406Z,206.87
2023-04-26T10:35:31.419Z,206.12
2023-04-26T10:36:32.621Z,212.05
2023-04-26T10:37:31.450Z,223.63
2023-04-26T10:38:31.332Z,234.21
2023-04-26T10:39:31.311Z,226.49
2023-04-26T10:40:31.326Z,216.34
2023-04-26T10:41:31.241Z,202.55
2023-04-26T10:42:31.214Z,194.33
2023-04-26T10:43:31.204Z,194.40
2023-04-26T10:44:31.261Z,192.06
2023-04-26T10:45:31.455Z,189.58
2023-04-26T10:46:31.381Z,184.37
2023-04-26T10:47:31.187Z,175.87
2023-04-26T10:48:31.154Z,169.63
2023-04-26T10:49:31.113Z,165.18
2023-04-26T10:50:31.118Z,158.45
2023-04-26T10:51:31.118Z,154.54
2023-04-26T10:52:31.094Z,149.30
2023-04-26T10:53:31.096Z,143.89
2023-04-26T10:54:31.090Z,140.22
2023-04-26T10:55:31.086Z,136.16
2023-04-26T10:56:31.108Z,132.74
2023-04-26T10:57:32.043Z,128.26
2023-04-26T10:58:31.110Z,119.93
2023-04-26T10:59:39.957Z,112.63
2023-04-26T11:00:32.993Z,108.03
2023-04-26T11:01:31.103Z,103.63
2023-04-26T11:02:32.054Z,98.88
2023-04-26T11:03:33.196Z,92.83
2023-04-26T11:04:31.100Z,86.12
2023-04-26T11:05:31.013Z,76.42
2023-04-26T11:06:31.030Z,60.85
2023-04-26T11:07:31.028Z,56.66
2023-04-26T11:08:30.997Z,54.65
2023-04-26T11:09:31.004Z,55.63
2023-04-26T11:10:30.935Z,47.73
2023-04-26T11:11:30.884Z,52.68
2023-04-26T11:12:30.883Z,55.41
2023-04-26T11:13:30.901Z,59.25
2023-04-26T11:14:30.791Z,64.61
2023-04-26T11:15:30.754Z,68.95
2023-04-26T11:16:30.782Z,73.03
2023-04-26T11:17:30.744Z,79.41
2023-04-26T11:18:30.736Z,83.76
2023-04-26T11:19:30.739Z,82.40
2023-04-26T11:20:30.623Z,84.11
2023-04-26T11:21:31.035Z,83.52
2023-04-26T11:22:30.544Z,89.38
2023-04-26T11:23:30.512Z,92.96
2023-04-26T11:24:30.514Z,96.03
2023-04-26T11:25:30.611Z,105.71
2023-04-26T11:26:30.429Z,114.85
2023-04-26T11:27:30.403Z,121.55
2023-04-26T11:28:31.655Z,125.83
2023-04-26T11:29:30.742Z,130.14
2023-04-26T11:30:30.304Z,131.80
2023-04-26T11:31:30.326Z,138.79
2023-04-26T11:32:30.266Z,139.03
2023-04-26T11:33:30.229Z,140.52
2023-04-26T11:34:30.199Z,144.12
2023-04-26T11:35:30.164Z,139.44
2023-04-26T11:36:30.519Z,142.40
2023-04-26T11:37:30.096Z,148.49
2023-04-26T11:38:30.063Z,158.72
2023-04-26T11:39:30.057Z,169.23
2023-04-26T11:40:30.055Z,169.50
2023-04-26T11:41:29.990Z,168.62
2023-04-26T11:42:29.946Z,167.66
2023-04-26T11:43:29.964Z,167.43
2023-04-26T11:44:29.904Z,167.13
2023-04-26T11:45:29.865Z,167.40
2023-04-26T11:46:29.877Z,167.64
2023-04-26T11:47:29.835Z,165.18
2023-04-26T11:48:29.781Z,165.36
2023-04-26T11:49:29.811Z,165.90
2023-04-26T11:50:29.723Z,164.12
2023-04-26T11:51:30.633Z,164.85
2023-04-26T11:52:29.699Z,161.81
2023-04-26T11:53:29.649Z,159.79
2023-04-26T11:54:29.686Z,160.21
2023-04-26T11:55:29.603Z,158.68
2023-04-26T11:56:29.565Z,160.14
2023-04-26T11:57:29.772Z,159.72
2023-04-26T11:58:29.517Z,161.29
2023-04-26T11:59:29.482Z,162.01
2023-04-26T12:00:29.564Z,158.56
2023-04-26T12:01:29.445Z,156.95
2023-04-26T12:02:29.607Z,155.73
2023-04-26T12:03:29.497Z,157.27
2023-04-26T12:04:30.167Z,157.18
2023-04-26T12:05:29.316Z,157.92
2023-04-26T12:06:29.295Z,156.18
2023-04-26T12:07:29.252Z,156.06
2023-04-26T12:08:29.219Z,156.19
2023-04-26T12:09:29.182Z,156.23
2023-04-26T12:10:29.177Z,156.50
2023-04-26T12:11:29.134Z,155.24
2023-04-26T12:12:29.133Z,150.99
2023-04-26T12:13:29.070Z,148.77
2023-04-26T12:14:29.049Z,148.88
2023-04-26T12:15:29.120Z,149.45
2023-04-26T12:16:29.042Z,150.57
2023-04-26T12:17:29.180Z,151.64
2023-04-26T12:18:28.950Z,151.47
2023-04-26T12:19:28.931Z,151.07
2023-04-26T12:20:28.908Z,153.06
2023-04-26T12:21:30.828Z,153.57
2023-04-26T12:22:28.987Z,155.44
2023-04-26T12:23:28.819Z,154.37
2023-04-26T12:24:28.928Z,151.50
2023-04-26T12:25:28.779Z,151.50
2023-04-26T12:26:28.986Z,151.62
2023-04-26T12:27:29.535Z,151.24
2023-04-26T12:28:28.851Z,150.03
2023-04-26T12:29:28.722Z,150.92
2023-04-26T12:30:28.799Z,150.15
2023-04-26T12:31:29.121Z,150.40
2023-04-26T12:32:29.647Z,149.38
2023-04-26T12:33:28.633Z,150.83
2023-04-26T12:34:28.570Z,151.62